createdAt,value
2018-04-13T00:03:41.473Z,46.57
2018-04-13T00:08:32.531Z,47.07
2018-04-13T00:13:23.628Z,45.10
2018-04-13T00:18:14.705Z,54.97
2018-04-13T00:23:06.465Z,48.73
2018-04-13T00:27:57.485Z,51.57
2018-04-13T00:32:48.545Z,46.00
2018-04-13T00:37:39.620Z,43.90
2018-04-13T00:42:31.396Z,46.63
2018-04-13T00:47:22.411Z,48.83
2018-04-13T00:52:13.431Z,45.23
2018-04-13T00:57:04.563Z,51.17
2018-04-13T01:01:55.632Z,45.80
2018-04-13T01:06:47.411Z,44.80
2018-04-13T01:11:38.451Z,46.83
2018-04-13T01:16:29.504Z,48.43
2018-04-13T01:21:20.535Z,43.43
2018-04-13T01:26:12.308Z,50.13
2018-04-13T01:31:03.311Z,47.27
2018-04-13T01:35:55.088Z,46.20
2018-04-13T01:40:46.155Z,42.50
2018-04-13T01:45:37.176Z,44.50
2018-04-13T01:50:28.939Z,39.60
2018-04-13T01:55:20.806Z,47.93
2018-04-13T02:00:11.838Z,50.03
2018-04-13T02:05:02.865Z,48.27
2018-04-13T02:09:53.939Z,45.43
2018-04-13T02:14:45.008Z,40.90
2018-04-13T02:19:36.017Z,45.13
2018-04-13T02:24:27.033Z,41.93
2018-04-13T02:29:18.789Z,47.03
2018-04-13T02:34:09.908Z,50.67
2018-04-13T02:39:00.939Z,40.67
2018-04-13T02:43:51.952Z,42.77
2018-04-13T02:48:43.718Z,48.93
2018-04-13T02:53:34.839Z,44.97
2018-04-13T02:58:25.926Z,47.80
2018-04-13T03:03:17.684Z,43.23
2018-04-13T03:08:08.696Z,46.30
2018-04-13T03:13:00.501Z,50.63
2018-04-13T03:17:51.813Z,49.60
2018-04-13T03:22:42.841Z,44.50
2018-04-13T03:27:33.867Z,47.43
2018-04-13T03:32:24.888Z,41.73
2018-04-13T03:37:15.929Z,48.13
2018-04-13T03:42:08.487Z,51.43
2018-04-13T03:46:59.543Z,52.03
2018-04-13T03:51:51.321Z,45.30
2018-04-13T03:56:42.405Z,44.03
2018-04-13T04:01:34.157Z,45.40
2018-04-13T04:06:25.167Z,43.17
2018-04-13T04:11:17.098Z,40.70
2018-04-13T04:16:08.872Z,40.17
2018-04-13T04:26:54.480Z,41.17
2018-04-13T04:31:46.252Z,50.47
2018-04-13T04:36:37.349Z,45.53
2018-04-13T04:41:29.137Z,44.97
2018-04-13T04:46:20.198Z,48.13
2018-04-13T04:51:11.232Z,43.60
2018-04-13T04:56:02.399Z,47.00
2018-04-13T05:00:53.489Z,42.53
2018-04-13T05:05:45.297Z,44.53
2018-04-13T05:10:36.316Z,43.40
2018-04-13T05:15:27.512Z,45.10
2018-04-13T05:20:18.733Z,41.43
2018-04-13T05:25:09.802Z,48.13
2018-04-13T05:30:00.821Z,44.07
2018-04-13T05:34:51.896Z,40.93
2018-04-13T05:39:42.979Z,41.93
2018-04-13T05:44:34.738Z,46.03
2018-04-13T05:49:26.596Z,45.30
2018-04-13T05:54:18.360Z,41.10
2018-04-13T05:59:09.416Z,37.40
2018-04-13T06:04:00.433Z,34.57
2018-04-13T06:08:51.476Z,38.00
2018-04-13T06:13:42.560Z,43.20
2018-04-13T06:18:33.595Z,38.63
2018-04-13T06:23:24.641Z,40.20
2018-04-13T06:28:15.668Z,39.37
2018-04-13T06:33:07.485Z,33.63
2018-04-13T06:37:58.532Z,34.00
2018-04-13T06:42:49.585Z,36.83
2018-04-13T06:47:41.388Z,36.80
2018-04-13T06:52:32.782Z,40.80
2018-04-13T06:57:23.799Z,31.07
2018-04-13T07:02:14.899Z,34.00
2018-04-13T07:07:06.741Z,34.40
2018-04-13T07:11:58.636Z,39.87
2018-04-13T07:16:49.671Z,38.93
2018-04-13T07:21:40.811Z,36.23
2018-04-13T07:26:31.899Z,38.70
2018-04-13T07:31:24.004Z,40.67
2018-04-13T07:36:15.753Z,37.77
2018-04-13T07:41:07.573Z,39.83
2018-04-13T07:45:59.392Z,42.17
2018-04-13T07:50:50.415Z,42.20
2018-04-13T07:55:41.438Z,41.87
2018-04-13T08:00:32.467Z,44.20
2018-04-13T08:05:23.525Z,49.47
2018-04-13T08:10:15.661Z,47.07
2018-04-13T08:15:06.359Z,50.37
2018-04-13T08:19:57.558Z,46.27
2018-04-13T08:24:49.413Z,50.20
2018-04-13T08:29:40.485Z,44.97
2018-04-13T08:34:31.513Z,48.67
2018-04-13T08:39:23.347Z,45.23
2018-04-13T08:44:14.368Z,51.23
2018-04-13T08:49:05.569Z,47.27
2018-04-13T08:53:56.480Z,45.17
2018-04-13T08:58:47.658Z,46.00
2018-04-13T09:03:38.708Z,49.53
2018-04-13T09:08:29.774Z,42.57
2018-04-13T09:13:21.545Z,43.57
2018-04-13T09:18:12.661Z,43.20
2018-04-13T09:23:04.423Z,41.77
2018-04-13T09:27:55.453Z,42.87
2018-04-13T09:32:46.571Z,40.63
2018-04-13T09:37:37.721Z,44.83
2018-04-13T09:42:28.778Z,35.93
2018-04-13T09:47:20.592Z,38.23
2018-04-13T09:52:11.629Z,37.13
2018-04-13T09:57:02.675Z,39.50
2018-04-13T10:01:54.420Z,44.30
2018-04-13T10:06:45.597Z,44.53
2018-04-13T10:11:36.615Z,44.80
2018-04-13T10:16:27.860Z,44.77
2018-04-13T10:21:18.921Z,43.63
2018-04-13T10:26:09.964Z,44.20
2018-04-13T10:31:00.960Z,42.90
2018-04-13T10:35:51.960Z,50.33
2018-04-13T10:40:43.002Z,46.53
2018-04-13T10:45:34.851Z,46.77
2018-04-13T10:50:25.870Z,45.87
2018-04-13T10:55:17.734Z,42.13
2018-04-13T11:00:08.864Z,45.53
2018-04-13T11:04:59.880Z,47.93
2018-04-13T11:09:50.895Z,42.80
2018-04-13T11:14:41.918Z,40.47
2018-04-13T11:19:33.862Z,39.73
2018-04-13T11:24:24.877Z,38.40
2018-04-13T11:29:15.977Z,42.17
2018-04-13T11:34:07.816Z,38.13
2018-04-13T11:38:59.729Z,33.00
2018-04-13T11:43:50.816Z,36.53
2018-04-13T11:48:41.852Z,39.80
2018-04-13T11:53:32.904Z,36.93
2018-04-13T11:58:23.960Z,31.40
2018-04-13T12:03:15.816Z,25.40
2018-04-13T12:08:06.845Z,28.23
2018-04-13T12:12:57.887Z,28.57
2018-04-13T12:17:48.973Z,24.43
2018-04-13T12:22:40.743Z,23.73
2018-04-13T12:27:31.735Z,26.77
2018-04-13T12:32:23.539Z,23.93
2018-04-13T12:37:14.568Z,23.10
2018-04-13T12:42:05.771Z,22.27
2018-04-13T12:46:57.003Z,20.47
2018-04-13T12:51:48.012Z,21.03
2018-04-13T12:56:39.134Z,18.53
2018-04-13T13:01:30.264Z,20.90
2018-04-13T13:06:21.293Z,13.47
2018-04-13T13:11:12.316Z,21.30
2018-04-13T13:16:03.320Z,17.93
2018-04-13T13:20:54.433Z,18.60
2018-04-13T13:25:45.436Z,18.20
2018-04-13T13:30:37.259Z,18.30
2018-04-13T13:35:28.313Z,17.63
2018-04-13T13:40:20.048Z,17.70
2018-04-13T13:45:11.860Z,24.00
2018-04-13T13:50:02.978Z,20.13
2018-04-13T13:54:54.206Z,16.20
2018-04-13T13:59:45.939Z,18.33
2018-04-13T14:04:36.952Z,18.63
2018-04-13T14:09:28.033Z,19.13
2018-04-13T14:14:19.056Z,13.60
2018-04-13T14:19:10.083Z,17.20
2018-04-13T14:24:01.101Z,22.80
2018-04-13T14:28:52.141Z,12.43
2018-04-13T14:33:43.230Z,20.07
2018-04-13T14:38:35.053Z,13.33
2018-04-13T14:43:26.057Z,11.40
2018-04-13T14:48:17.152Z,16.33
2018-04-13T14:53:08.218Z,14.57
2018-04-13T14:57:59.295Z,14.83
2018-04-13T15:02:50.300Z,12.43
2018-04-13T15:07:42.063Z,13.20
2018-04-13T15:12:33.108Z,15.50
2018-04-13T15:17:24.161Z,11.83
2018-04-13T15:22:15.192Z,17.00
2018-04-13T15:27:06.947Z,15.13
2018-04-13T15:31:58.856Z,16.20
2018-04-13T15:36:50.049Z,14.37
2018-04-13T15:41:41.101Z,17.07
2018-04-13T15:46:32.178Z,14.63
2018-04-13T15:51:23.311Z,14.93
2018-04-13T15:56:14.340Z,13.53
2018-04-13T16:01:05.438Z,18.07
2018-04-13T16:05:57.224Z,18.60
2018-04-13T16:10:48.248Z,14.37
2018-04-13T16:15:39.297Z,10.60
2018-04-13T16:20:30.300Z,8.47
2018-04-13T16:25:21.410Z,12.77
2018-04-13T16:30:12.453Z,10.63
2018-04-13T16:35:03.488Z,9.40
2018-04-13T16:39:54.558Z,10.43
2018-04-13T16:44:45.602Z,8.53
2018-04-13T16:49:36.630Z,9.10
2018-04-13T16:54:27.715Z,16.00
2018-04-13T16:59:19.517Z,9.90
2018-04-13T17:04:11.314Z,7.60
2018-04-13T17:09:02.388Z,9.47
2018-04-13T17:13:54.213Z,9.07
2018-04-13T17:18:45.268Z,8.63
2018-04-13T17:23:37.018Z,11.13
2018-04-13T17:28:28.765Z,13.90
2018-04-13T17:33:20.519Z,9.57
2018-04-13T17:38:11.549Z,11.60
2018-04-13T17:43:02.684Z,11.17
2018-04-13T17:47:53.688Z,11.43
2018-04-13T17:52:44.761Z,10.47
2018-04-13T17:57:35.763Z,14.53
2018-04-13T18:02:26.795Z,16.83
2018-04-13T18:07:17.940Z,14.00
2018-04-13T18:12:09.025Z,13.77
2018-04-13T18:17:00.048Z,14.93
2018-04-13T18:21:51.086Z,11.90
2018-04-13T18:26:42.161Z,18.43
2018-04-13T18:31:33.117Z,20.10
2018-04-13T18:36:24.125Z,13.03
2018-04-13T18:41:15.139Z,15.93
2018-04-13T18:46:06.165Z,17.23
2018-04-13T18:50:57.264Z,13.57
2018-04-13T18:55:48.255Z,18.93
2018-04-13T19:00:39.268Z,15.87
2018-04-13T19:05:30.309Z,15.63
2018-04-13T19:10:22.926Z,15.77
2018-04-13T19:15:13.937Z,16.90
2018-04-13T19:20:05.001Z,13.23
2018-04-13T19:24:56.023Z,14.20
2018-04-13T19:29:47.042Z,15.93
2018-04-13T19:34:38.152Z,16.97
2018-04-13T19:39:29.207Z,18.97
2018-04-13T19:44:20.248Z,18.47
2018-04-13T19:49:11.997Z,22.53
2018-04-13T19:54:03.743Z,19.50
2018-04-13T19:58:55.579Z,21.37
2018-04-13T20:03:47.399Z,22.60
2018-04-13T20:08:38.437Z,20.23
2018-04-13T20:13:30.256Z,21.67
2018-04-13T20:18:21.255Z,18.93
2018-04-13T20:23:12.310Z,20.93
2018-04-13T20:28:03.395Z,21.93
2018-04-13T20:32:54.422Z,23.63
2018-04-13T20:37:45.632Z,20.87
2018-04-13T20:42:36.705Z,22.63
2018-04-13T20:47:29.213Z,24.90
2018-04-13T20:52:20.740Z,19.03
2018-04-13T20:57:12.513Z,24.50
2018-04-13T21:02:03.528Z,23.83
2018-04-13T21:06:54.545Z,23.20
2018-04-13T21:11:45.575Z,22.07
2018-04-13T21:16:36.616Z,20.83
2018-04-13T21:21:27.644Z,22.27
2018-04-13T21:26:18.644Z,20.27
2018-04-13T21:31:09.677Z,27.27
2018-04-13T21:36:00.744Z,22.93
2018-04-13T21:40:52.531Z,22.37
2018-04-13T21:45:43.532Z,19.67
2018-04-13T21:50:34.562Z,25.13
2018-04-13T21:55:25.579Z,20.73
2018-04-13T22:00:16.577Z,20.93
2018-04-13T22:05:08.333Z,19.43
2018-04-13T22:10:00.133Z,16.87
2018-04-13T22:14:54.040Z,14.87
2018-04-13T22:19:45.799Z,10.80
2018-04-13T22:24:37.544Z,13.43
2018-04-13T22:29:28.566Z,13.23
2018-04-13T22:34:20.337Z,13.17
2018-04-13T22:39:11.367Z,11.67
2018-04-13T22:44:02.468Z,9.27
2018-04-13T22:48:53.496Z,9.67
2018-04-13T22:53:44.506Z,6.90
2018-04-13T22:58:36.329Z,6.57
2018-04-13T23:03:28.113Z,5.20
2018-04-13T23:08:19.143Z,6.40
2018-04-13T23:13:10.185Z,7.20
2018-04-13T23:18:01.237Z,9.43
2018-04-13T23:22:53.024Z,9.27
2018-04-13T23:27:44.053Z,9.40
2018-04-13T23:32:35.064Z,10.33
2018-04-13T23:37:26.176Z,10.50
2018-04-13T23:42:17.240Z,11.10
2018-04-13T23:47:08.246Z,13.37
2018-04-13T23:51:59.255Z,9.97
2018-04-13T23:56:50.279Z,11.23
